Skip to content.

Wairarapa Tararua

  

Homebush - HOM

Logged in to unit HSN11404 as: Guest
(Last data received Thu 22 Feb 2018 17:40:00 - 80 seconds ago)

Weather FWI Graphs Forecast Hourly FWI Daily FWI Download FWI Data

Hourly FWI Logs | Period From 17:40 21/02/2018 to 17:40 22/02/2018

Change the DoC% for the 24hr period starting 12:00pm 22/2/2018 to

If the date above is the current day, then all future logs will inherit this value until such time as it is changed again. If you wish to change historic values you can do so by going back to the day you want to alter (navigate via the graphs) and change the DoC% there (however this will only affect that day).

WindRainHourly FWIsDaily FWIsForestGrassScrub
DateTime (NZST)Temp (C)RH (%)Dir (deg)Speed (km/h)Hourly (mm)Daily (mm)FFMCISIHFWIFFMCDMCDCISIBUIFWIDSRROS (m/h)FFI (kW/m)FFDCDoC (%)ROS (m/h)GFI (kW/m)GFDCROS (m/h)SFI (kW/m)SFDC
22/02/2018 1600 15.3 82.7 216 15.7 0.0 18.4 0.0 0.0 0 0 L 70 0 0 L 0 0 L
22/02/2018 1500 14.6 85.1 202 16.6 0.0 15.8 0.0 0.0 0 0 L 70 0 0 L 0 0 L
22/02/2018 1400 15.1 83.9 205 21.9 0.0 13.4 0.0 0.0 0 0 L 70 0 0 L 0 0 L
22/02/2018 1300 14.4 88.2 182 15.7 0.2 10.5 0.0 0.0 0 0 L 70 0 0 L 0 0 L
22/02/2018 1200 17.4 75.3 183 15.7 0.0 27.4 9.1 0.0 0.0 43.9 6.2 187.6 0.2 11.4 0.1 0.0 0 0 L 70 0 0 L 0 0 L
22/02/2018 1100 15.1 83.9 191 20.7 0.0 5.4 0.0 0.0 0 0 L 70 0 0 L 0 0 L
22/02/2018 1000 14.3 91.2 187 17.4 0.0 2.7 0.0 0.0 0 0 L 70 0 0 L 0 0 L
22/02/2018 0900 13.1 95.1 201 13.7 0.0 1.0 0.0 0.0 0 0 L 70 0 0 L 0 0 L
22/02/2018 0800 12.2 99.0 196 14.5 0.4 0.2 0.0 0.0 0 0 L 70 0 0 L 0 0 L
22/02/2018 0700 11.4 100.0 200 14.5 2.8 0.0 0.0 0.0 0 0 L 70 0 0 L 0 0 L
22/02/2018 0600 11.3 99.9 194 14.5 5.4 0.0 0.0 0.0 0 0 L 70 0 0 L 0 0 L
22/02/2018 0500 11.4 99.5 208 10.8 6.2 0.8 0.0 0.0 0 0 L 70 0 0 L 0 0 L
22/02/2018 0400 11.6 98.8 232 10.4 5.2 4.9 0.0 0.0 0 0 L 70 0 0 L 0 0 L
22/02/2018 0300 11.7 98.8 181 18.6 3.8 13.9 0.0 0.0 0 0 L 70 0 0 L 0 0 L
22/02/2018 0200 12.2 98.6 206 16.1 2.4 32.8 0.0 0.0 0 0 L 70 0 0 L 0 3 L
22/02/2018 0100 12.4 97.5 201 18.6 0.8 59.7 1.0 1.1 15 17 M 70 20 36 M 150 1497 H
22/02/2018 0000 13.1 95.7 202 13.2 0.4 74.0 1.4 2.2 25 29 M 70 35 61 M 237 2372 V
21/02/2018 2300 13.4 93.3 213 12.8 0.0 82.9 3.1 5.5 83 97 M 70 122 214 M 664 6640 E
21/02/2018 2200 12.6 88.6 76 5.8 0.0 83.8 2.4 4.3 57 67 M 70 83 146 M 486 4864 E
21/02/2018 2100 14.2 85.3 40 7.9 0.0 84.4 2.9 5.2 76 89 M 70 112 196 M 618 6182 E
21/02/2018 2000 14.2 80.7 66 5.8 0.0 84.9 2.8 5.0 72 85 M 70 106 186 M 592 5925 E
21/02/2018 1900 16.1 67.8 256 17.0 0.0 85.3 5.2 8.9 176 207 M 70 282 494 M 1263 12626 E
21/02/2018 1800 18.6 56.2 280 31.5 0.0 85.3 10.8 16.0 436 512 H 70 837 1464 H 2633 26328 E
21/02/2018 1700 19.1 66.1 223 21.5 0.0 85.2 6.4 10.6 235 275 M 70 391 685 H 1600 15997 E